createdAt,value
2022-12-24T00:03:34.217Z,6.03
2022-12-24T00:09:36.036Z,4.88
2022-12-24T00:15:37.772Z,4.15
2022-12-24T00:21:39.777Z,3.80
2022-12-24T00:27:41.523Z,3.42
2022-12-24T00:33:43.827Z,2.95
2022-12-24T00:39:45.647Z,3.00
2022-12-24T00:45:47.443Z,2.60
2022-12-24T00:51:49.388Z,2.63
2022-12-24T00:57:51.107Z,2.75
2022-12-24T01:04:13.440Z,2.28
2022-12-24T01:10:20.168Z,2.20
2022-12-24T01:16:22.059Z,2.15
2022-12-24T01:22:23.874Z,2.58
2022-12-24T01:28:25.661Z,2.60
2022-12-24T01:34:27.405Z,2.78
2022-12-24T01:40:47.704Z,2.10
2022-12-24T01:46:55.078Z,2.15
2022-12-24T01:52:57.639Z,2.60
2022-12-24T01:59:06.050Z,2.75
2022-12-24T02:05:30.790Z,3.45
2022-12-24T02:11:33.364Z,2.83
2022-12-24T02:17:37.809Z,2.97
2022-12-24T02:24:02.119Z,2.92
2022-12-24T02:30:10.202Z,2.42
2022-12-24T02:36:19.794Z,3.40
2022-12-24T02:42:26.032Z,2.63
2022-12-24T02:48:30.076Z,3.10
2022-12-24T02:54:32.962Z,3.08
2022-12-24T03:01:16.308Z,3.15
2022-12-24T03:07:30.117Z,3.92
2022-12-24T03:13:32.118Z,3.78
2022-12-24T03:19:35.090Z,3.75
2022-12-24T03:25:42.368Z,3.33
2022-12-24T03:31:52.313Z,3.47
2022-12-24T03:37:54.080Z,2.78
2022-12-24T03:43:55.812Z,2.95
2022-12-24T03:49:58.387Z,3.45
2022-12-24T03:56:00.172Z,3.35
2022-12-24T04:02:02.125Z,3.55
2022-12-24T04:08:04.041Z,3.88
2022-12-24T04:14:05.774Z,3.65
2022-12-24T04:20:08.141Z,3.65
2022-12-24T04:26:12.339Z,3.42
2022-12-24T04:32:14.773Z,4.50
2022-12-24T04:38:16.609Z,3.92
2022-12-24T04:44:18.304Z,4.30
2022-12-24T04:50:19.987Z,4.85
2022-12-24T04:56:24.870Z,4.07
2022-12-24T05:02:26.849Z,4.00
2022-12-24T05:08:28.804Z,4.03
2022-12-24T05:14:30.497Z,5.68
2022-12-24T05:20:32.296Z,5.75
2022-12-24T05:26:41.023Z,4.90
2022-12-24T05:32:42.722Z,4.93
2022-12-24T05:38:44.486Z,5.40
2022-12-24T05:44:46.188Z,4.63
2022-12-24T05:50:47.876Z,4.60
2022-12-24T05:56:49.621Z,4.45
2022-12-24T06:02:51.446Z,4.97
2022-12-24T06:08:55.337Z,4.70
2022-12-24T06:14:57.065Z,3.80
2022-12-24T06:20:59.342Z,4.50
2022-12-24T06:27:01.067Z,5.47
2022-12-24T06:33:03.050Z,4.63
2022-12-24T06:39:04.781Z,5.20
2022-12-24T06:45:08.612Z,5.75
2022-12-24T06:51:10.680Z,5.10
2022-12-24T06:57:12.408Z,7.25
2022-12-24T07:03:14.265Z,4.68
2022-12-24T07:09:16.158Z,7.10
2022-12-24T07:15:18.044Z,6.07
2022-12-24T07:21:19.791Z,6.53
2022-12-24T07:27:21.950Z,7.80
2022-12-24T07:33:24.455Z,7.05
2022-12-24T07:39:26.624Z,8.05
2022-12-24T07:45:28.300Z,8.35
2022-12-24T07:51:30.159Z,8.48
2022-12-24T07:57:31.896Z,8.15
2022-12-24T08:03:33.711Z,7.93
2022-12-24T08:09:36.760Z,8.88
2022-12-24T08:15:38.494Z,8.25
2022-12-24T08:21:40.489Z,8.00
2022-12-24T08:27:42.249Z,7.30
2022-12-24T08:33:43.915Z,7.82
2022-12-24T08:39:45.595Z,7.70
2022-12-24T08:45:49.488Z,8.40
2022-12-24T08:51:51.925Z,8.43
2022-12-24T08:57:53.910Z,8.77
2022-12-24T09:03:55.610Z,8.80
2022-12-24T09:09:57.407Z,7.60
2022-12-24T09:15:59.493Z,7.03
2022-12-24T09:22:01.288Z,6.35
2022-12-24T09:28:02.959Z,6.47
2022-12-24T09:34:04.637Z,6.57
2022-12-24T09:40:06.954Z,6.07
2022-12-24T09:46:24.913Z,5.82
2022-12-24T09:52:35.695Z,5.38
2022-12-24T09:58:41.694Z,6.35
2022-12-24T10:04:44.872Z,5.18
2022-12-24T10:10:56.249Z,5.13
2022-12-24T10:17:28.573Z,5.10
2022-12-24T10:24:11.242Z,5.47
2022-12-24T10:30:17.875Z,5.85
2022-12-24T10:36:25.980Z,5.55
2022-12-24T10:42:36.706Z,5.90
2022-12-24T10:48:50.501Z,7.15
2022-12-24T10:55:28.628Z,7.18
2022-12-24T11:01:45.681Z,6.55
2022-12-24T11:08:03.771Z,6.53
2022-12-24T11:14:05.832Z,6.38
2022-12-24T11:20:24.692Z,5.88
2022-12-24T11:26:30.122Z,5.00
2022-12-24T11:32:31.984Z,5.13
2022-12-24T11:38:35.281Z,5.35
2022-12-24T11:44:48.775Z,5.05
2022-12-24T11:51:06.385Z,6.22
2022-12-24T11:57:13.065Z,5.07
2022-12-24T12:03:44.537Z,4.95
2022-12-24T12:09:52.079Z,5.32
2022-12-24T12:16:22.117Z,5.97
2022-12-24T12:22:51.732Z,5.00
2022-12-24T12:28:58.757Z,5.93
2022-12-24T12:35:17.434Z,6.35
2022-12-24T12:41:40.020Z,5.65
2022-12-24T12:48:01.221Z,5.30
2022-12-24T12:54:22.246Z,5.07
2022-12-24T13:00:24.083Z,4.80
2022-12-24T13:06:38.520Z,5.32
2022-12-24T13:13:20.549Z,4.78
2022-12-24T13:20:04.155Z,5.80
2022-12-24T13:26:12.037Z,5.00
2022-12-24T13:32:37.928Z,5.05
2022-12-24T13:38:58.296Z,4.97
2022-12-24T13:45:31.247Z,5.13
2022-12-24T13:51:33.673Z,4.63
2022-12-24T13:57:57.495Z,4.57
2022-12-24T14:04:02.293Z,4.40
2022-12-24T14:10:06.422Z,4.38
2022-12-24T14:16:27.542Z,4.85
2022-12-24T14:22:34.341Z,5.65
2022-12-24T14:28:41.712Z,5.35
2022-12-24T14:34:43.557Z,5.40
2022-12-24T14:41:09.395Z,5.65
2022-12-24T14:47:25.712Z,4.75
2022-12-24T14:53:30.165Z,5.43
2022-12-24T14:59:40.049Z,4.10
2022-12-24T15:05:42.812Z,4.13
2022-12-24T15:11:46.499Z,5.53
2022-12-24T15:17:48.573Z,4.93
2022-12-24T15:23:51.947Z,4.63
2022-12-24T15:29:57.158Z,4.30
2022-12-24T15:35:58.914Z,4.43
2022-12-24T15:42:16.043Z,5.05
2022-12-24T15:48:25.536Z,4.30
2022-12-24T15:54:27.361Z,3.97
2022-12-24T16:00:32.388Z,3.92
2022-12-24T16:06:54.578Z,3.90
2022-12-24T16:12:56.371Z,3.38
2022-12-24T16:19:02.605Z,4.13
2022-12-24T16:25:23.335Z,4.30
2022-12-24T16:31:38.201Z,4.00
2022-12-24T16:43:50.847Z,6.15
2022-12-24T16:49:53.043Z,5.72
2022-12-24T16:55:55.898Z,7.53
2022-12-24T17:01:57.813Z,6.65
2022-12-24T17:08:00.922Z,6.95
2022-12-24T17:14:08.015Z,8.10
2022-12-24T17:20:11.038Z,7.35
2022-12-24T17:26:15.343Z,7.03
2022-12-24T17:32:17.243Z,6.57
2022-12-24T17:38:18.960Z,7.32
2022-12-24T17:44:20.660Z,6.68
2022-12-24T17:50:22.556Z,6.57
2022-12-24T17:56:24.524Z,7.38
2022-12-24T18:02:26.490Z,7.28
2022-12-24T18:08:28.815Z,7.57
2022-12-24T18:14:30.557Z,7.25
2022-12-24T18:20:34.499Z,7.15
2022-12-24T18:26:36.384Z,8.10
2022-12-24T18:32:38.518Z,7.65
2022-12-24T18:38:40.811Z,7.75
2022-12-24T18:44:42.687Z,7.35
2022-12-24T18:50:53.729Z,7.88
2022-12-24T18:56:55.572Z,8.02
2022-12-24T19:02:57.350Z,7.95
2022-12-24T19:09:01.196Z,8.02
2022-12-24T19:15:03.756Z,8.33
2022-12-24T19:21:11.228Z,8.20
2022-12-24T19:27:12.999Z,9.10
2022-12-24T19:33:14.799Z,8.60
2022-12-24T19:39:16.664Z,9.30
2022-12-24T19:45:20.029Z,9.18
2022-12-24T19:51:22.425Z,8.52
2022-12-24T19:57:24.163Z,9.10
2022-12-24T20:03:26.287Z,10.02
2022-12-24T20:09:28.931Z,9.02
2022-12-24T20:15:30.787Z,10.63
2022-12-24T20:21:33.382Z,10.57
2022-12-24T20:27:35.216Z,11.50
2022-12-24T20:33:37.093Z,9.93
2022-12-24T20:39:38.942Z,13.10
2022-12-24T20:45:41.145Z,11.10
2022-12-24T20:51:43.070Z,11.02
2022-12-24T20:57:44.873Z,10.45
2022-12-24T21:03:46.992Z,10.32
2022-12-24T21:09:48.729Z,9.85
2022-12-24T21:15:50.466Z,10.10
2022-12-24T21:21:52.482Z,9.50
2022-12-24T21:27:57.489Z,9.18
2022-12-24T21:33:59.235Z,8.77
2022-12-24T21:40:00.993Z,8.45
2022-12-24T21:46:08.213Z,8.82
2022-12-24T21:52:09.971Z,8.77
2022-12-24T21:58:11.741Z,8.60
2022-12-24T22:04:13.527Z,8.63
2022-12-24T22:10:33.911Z,7.55
2022-12-24T22:16:35.770Z,7.20
2022-12-24T22:22:37.774Z,6.38
2022-12-24T22:28:39.571Z,6.78
2022-12-24T22:34:41.466Z,6.32
2022-12-24T22:40:43.170Z,7.07
2022-12-24T22:46:45.168Z,7.05
2022-12-24T22:52:46.991Z,5.95
2022-12-24T22:58:56.430Z,7.70
2022-12-24T23:04:58.347Z,5.85
2022-12-24T23:11:12.441Z,6.13
2022-12-24T23:17:14.446Z,7.20
2022-12-24T23:23:16.427Z,6.20
2022-12-24T23:29:18.633Z,7.05
2022-12-24T23:35:20.357Z,6.82
2022-12-24T23:41:22.401Z,6.18
2022-12-24T23:47:24.123Z,5.90
2022-12-24T23:53:25.800Z,5.70
2022-12-24T23:59:27.667Z,5.97
